TimeEDT,TemperatureF,Dew PointF,Humidity,Sea Level PressureIn,VisibilityMPH,Wind Direction,Wind SpeedMPH,Gust SpeedMPH,PrecipitationIn,Events,Conditions,WindDirDegrees,DateUTC
12:51 AM,57.9,55.0,90,30.19,10.0,WSW,3.5,-,N/A,,Clear,240,2013-08-17 04:51:00
1:51 AM,57.0,54.0,89,30.20,10.0,West,5.8,-,N/A,,Clear,280,2013-08-17 05:51:00
2:51 AM,57.0,54.0,89,30.21,10.0,WNW,4.6,-,N/A,,Clear,300,2013-08-17 06:51:00
3:51 AM,57.0,55.0,93,30.21,10.0,Calm,Calm,-,N/A,,Clear,0,2013-08-17 07:51:00
4:51 AM,57.0,55.0,93,30.22,10.0,Calm,Calm,-,N/A,,Clear,0,2013-08-17 08:51:00
5:51 AM,55.0,54.0,96,30.24,10.0,WNW,4.6,-,N/A,,Clear,290,2013-08-17 09:51:00
6:51 AM,57.9,55.9,93,30.25,10.0,WNW,3.5,-,N/A,,Clear,290,2013-08-17 10:51:00
7:51 AM,64.0,57.9,80,30.26,10.0,WNW,5.8,-,N/A,,Clear,300,2013-08-17 11:51:00
8:51 AM,68.0,57.9,70,30.26,10.0,North,5.8,-,N/A,,Clear,350,2013-08-17 12:51:00
9:51 AM,73.0,55.9,55,30.27,10.0,North,9.2,-,N/A,,Clear,10,2013-08-17 13:51:00
10:51 AM,75.0,54.0,48,30.27,10.0,North,6.9,-,N/A,,Clear,350,2013-08-17 14:51:00
11:51 AM,75.9,54.0,46,30.26,10.0,Calm,Calm,-,N/A,,Clear,0,2013-08-17 15:51:00
12:51 PM,75.9,53.1,45,30.26,10.0,Variable,6.9,-,N/A,,Mostly Cloudy,0,2013-08-17 16:51:00
1:51 PM,75.9,57.0,52,30.25,10.0,SE,8.1,-,N/A,,Partly Cloudy,140,2013-08-17 17:51:00
2:51 PM,73.9,55.0,52,30.24,10.0,SSE,6.9,-,N/A,,Partly Cloudy,160,2013-08-17 18:51:00
3:51 PM,73.0,54.0,51,30.24,10.0,South,10.4,-,N/A,,Clear,190,2013-08-17 19:51:00
4:51 PM,73.0,51.1,46,30.24,10.0,South,9.2,-,N/A,,Clear,180,2013-08-17 20:51:00
5:51 PM,71.1,50.0,47,30.25,10.0,South,9.2,-,N/A,,Clear,190,2013-08-17 21:51:00
6:51 PM,69.1,51.1,53,30.25,10.0,South,10.4,-,N/A,,Partly Cloudy,190,2013-08-17 22:51:00
7:51 PM,66.0,51.1,59,30.25,10.0,SSW,5.8,-,N/A,,Partly Cloudy,200,2013-08-17 23:51:00
8:51 PM,64.9,51.1,61,30.27,10.0,South,8.1,-,N/A,,Clear,190,2013-08-18 00:51:00
9:51 PM,64.0,51.1,63,30.27,10.0,Calm,Calm,-,N/A,,Clear,0,2013-08-18 01:51:00
10:51 PM,61.0,51.1,70,30.27,10.0,Calm,Calm,-,N/A,,Clear,0,2013-08-18 02:51:00
11:51 PM,57.9,52.0,81,30.27,10.0,Calm,Calm,-,N/A,,Clear,0,2013-08-18 03:51:00